sensor_id;sensor_type;location;lat;lon;timestamp;P1;durP1;ratioP1;P2;durP2;ratioP2
13571;SDS011;6857;53.484;10.216;2023-03-24T00:00:58;9.13;;;3.97;;
13571;SDS011;6857;53.484;10.216;2023-03-24T00:03:25;6.70;;;3.30;;
13571;SDS011;6857;53.484;10.216;2023-03-24T00:06:03;5.30;;;3.40;;
13571;SDS011;6857;53.484;10.216;2023-03-24T00:08:30;5.83;;;3.00;;
13571;SDS011;6857;53.484;10.216;2023-03-24T00:11:06;5.57;;;2.97;;
13571;SDS011;6857;53.484;10.216;2023-03-24T00:13:33;5.93;;;2.77;;
13571;SDS011;6857;53.484;10.216;2023-03-24T00:16:12;5.03;;;3.37;;
13571;SDS011;6857;53.484;10.216;2023-03-24T00:18:39;4.60;;;2.73;;
13571;SDS011;6857;53.484;10.216;2023-03-24T00:21:06;4.27;;;3.00;;
13571;SDS011;6857;53.484;10.216;2023-03-24T00:23:33;3.60;;;2.77;;
13571;SDS011;6857;53.484;10.216;2023-03-24T00:26:02;5.90;;;2.50;;
13571;SDS011;6857;53.484;10.216;2023-03-24T00:28:30;4.67;;;3.30;;
13571;SDS011;6857;53.484;10.216;2023-03-24T00:30:58;6.60;;;3.10;;
13571;SDS011;6857;53.484;10.216;2023-03-24T00:33:26;5.77;;;3.13;;
13571;SDS011;6857;53.484;10.216;2023-03-24T00:35:52;7.83;;;3.13;;
13571;SDS011;6857;53.484;10.216;2023-03-24T00:38:18;4.07;;;2.97;;
13571;SDS011;6857;53.484;10.216;2023-03-24T00:40:44;6.50;;;2.93;;
13571;SDS011;6857;53.484;10.216;2023-03-24T00:43:12;4.37;;;2.63;;
13571;SDS011;6857;53.484;10.216;2023-03-24T00:45:38;4.43;;;2.90;;
13571;SDS011;6857;53.484;10.216;2023-03-24T00:48:11;9.93;;;3.27;;
13571;SDS011;6857;53.484;10.216;2023-03-24T00:50:37;6.87;;;3.17;;
13571;SDS011;6857;53.484;10.216;2023-03-24T00:53:03;3.97;;;2.40;;
13571;SDS011;6857;53.484;10.216;2023-03-24T00:55:29;4.00;;;3.20;;
13571;SDS011;6857;53.484;10.216;2023-03-24T00:57:56;4.97;;;3.00;;
13571;SDS011;6857;53.484;10.216;2023-03-24T01:00:22;5.30;;;3.20;;
13571;SDS011;6857;53.484;10.216;2023-03-24T01:02:50;4.73;;;2.90;;
13571;SDS011;6857;53.484;10.216;2023-03-24T01:05:18;4.33;;;2.57;;
13571;SDS011;6857;53.484;10.216;2023-03-24T01:07:54;6.13;;;2.50;;
13571;SDS011;6857;53.484;10.216;2023-03-24T01:10:21;6.83;;;3.20;;
13571;SDS011;6857;53.484;10.216;2023-03-24T01:12:50;5.30;;;3.13;;
13571;SDS011;6857;53.484;10.216;2023-03-24T01:15:19;7.37;;;3.37;;
13571;SDS011;6857;53.484;10.216;2023-03-24T01:17:47;5.43;;;3.40;;
13571;SDS011;6857;53.484;10.216;2023-03-24T01:20:13;4.80;;;2.90;;
13571;SDS011;6857;53.484;10.216;2023-03-24T01:22:39;5.80;;;2.97;;
13571;SDS011;6857;53.484;10.216;2023-03-24T01:25:10;6.60;;;3.47;;
13571;SDS011;6857;53.484;10.216;2023-03-24T01:27:38;4.97;;;2.93;;
13571;SDS011;6857;53.484;10.216;2023-03-24T01:30:04;4.27;;;3.03;;
13571;SDS011;6857;53.484;10.216;2023-03-24T01:32:31;5.90;;;3.10;;
13571;SDS011;6857;53.484;10.216;2023-03-24T01:34:56;7.20;;;3.33;;
13571;SDS011;6857;53.484;10.216;2023-03-24T01:37:22;8.17;;;3.43;;
13571;SDS011;6857;53.484;10.216;2023-03-24T01:39:48;5.27;;;3.20;;
13571;SDS011;6857;53.484;10.216;2023-03-24T01:42:18;6.23;;;3.50;;
13571;SDS011;6857;53.484;10.216;2023-03-24T01:44:48;5.77;;;3.20;;
13571;SDS011;6857;53.484;10.216;2023-03-24T01:47:15;4.43;;;3.20;;
13571;SDS011;6857;53.484;10.216;2023-03-24T01:50:02;4.53;;;3.00;;
13571;SDS011;6857;53.484;10.216;2023-03-24T01:52:29;6.80;;;3.10;;
13571;SDS011;6857;53.484;10.216;2023-03-24T01:55:01;6.80;;;3.50;;
13571;SDS011;6857;53.484;10.216;2023-03-24T01:57:33;7.30;;;3.30;;
13571;SDS011;6857;53.484;10.216;2023-03-24T02:00:06;4.63;;;3.20;;
13571;SDS011;6857;53.484;10.216;2023-03-24T02:02:34;4.93;;;3.23;;
13571;SDS011;6857;53.484;10.216;2023-03-24T02:05:05;5.77;;;3.13;;
13571;SDS011;6857;53.484;10.216;2023-03-24T02:07:35;6.50;;;3.87;;
13571;SDS011;6857;53.484;10.216;2023-03-24T02:10:13;7.73;;;3.73;;
13571;SDS011;6857;53.484;10.216;2023-03-24T02:12:41;7.53;;;3.80;;
13571;SDS011;6857;53.484;10.216;2023-03-24T02:15:08;8.77;;;4.23;;
13571;SDS011;6857;53.484;10.216;2023-03-24T02:25:47;7.17;;;3.90;;
13571;SDS011;6857;53.484;10.216;2023-03-24T02:28:31;7.20;;;4.07;;
13571;SDS011;6857;53.484;10.216;2023-03-24T02:31:14;5.57;;;3.60;;
13571;SDS011;6857;53.484;10.216;2023-03-24T02:39:34;5.87;;;3.53;;
13571;SDS011;6857;53.484;10.216;2023-03-24T02:51:10;5.97;;;3.47;;
13571;SDS011;6857;53.484;10.216;2023-03-24T02:55:59;6.43;;;3.33;;
13571;SDS011;6857;53.484;10.216;2023-03-24T03:01:10;6.23;;;3.40;;
13571;SDS011;6857;53.484;10.216;2023-03-24T03:03:47;6.50;;;3.70;;
13571;SDS011;6857;53.484;10.216;2023-03-24T03:06:23;6.73;;;3.93;;
13571;SDS011;6857;53.484;10.216;2023-03-24T03:08:53;6.33;;;3.67;;
13571;SDS011;6857;53.484;10.216;2023-03-24T03:11:21;7.70;;;4.17;;
13571;SDS011;6857;53.484;10.216;2023-03-24T03:16:20;5.53;;;3.93;;
13571;SDS011;6857;53.484;10.216;2023-03-24T03:18:59;8.13;;;3.97;;
13571;SDS011;6857;53.484;10.216;2023-03-24T03:21:28;6.30;;;3.77;;
13571;SDS011;6857;53.484;10.216;2023-03-24T03:24:01;7.30;;;3.90;;
13571;SDS011;6857;53.484;10.216;2023-03-24T03:26:32;6.27;;;3.97;;
13571;SDS011;6857;53.484;10.216;2023-03-24T03:28:59;7.53;;;4.10;;
13571;SDS011;6857;53.484;10.216;2023-03-24T03:31:33;6.80;;;4.27;;
13571;SDS011;6857;53.484;10.216;2023-03-24T03:34:13;7.43;;;4.33;;
13571;SDS011;6857;53.484;10.216;2023-03-24T03:39:32;8.30;;;4.40;;
13571;SDS011;6857;53.484;10.216;2023-03-24T03:42:02;7.40;;;4.10;;
13571;SDS011;6857;53.484;10.216;2023-03-24T03:44:30;7.87;;;4.77;;
13571;SDS011;6857;53.484;10.216;2023-03-24T03:46:56;7.20;;;4.27;;
13571;SDS011;6857;53.484;10.216;2023-03-24T03:49:21;5.90;;;3.97;;
13571;SDS011;6857;53.484;10.216;2023-03-24T03:51:49;7.13;;;4.30;;
13571;SDS011;6857;53.484;10.216;2023-03-24T03:54:15;6.00;;;4.53;;
13571;SDS011;6857;53.484;10.216;2023-03-24T03:56:42;6.73;;;4.10;;
13571;SDS011;6857;53.484;10.216;2023-03-24T03:59:08;6.23;;;4.27;;
13571;SDS011;6857;53.484;10.216;2023-03-24T04:01:46;7.07;;;4.73;;
13571;SDS011;6857;53.484;10.216;2023-03-24T04:06:54;7.57;;;4.67;;
13571;SDS011;6857;53.484;10.216;2023-03-24T04:12:38;6.33;;;4.00;;
13571;SDS011;6857;53.484;10.216;2023-03-24T04:20:44;7.30;;;4.30;;
13571;SDS011;6857;53.484;10.216;2023-03-24T04:31:14;5.70;;;4.03;;
13571;SDS011;6857;53.484;10.216;2023-03-24T04:33:56;5.87;;;3.90;;
13571;SDS011;6857;53.484;10.216;2023-03-24T04:39:20;6.23;;;4.67;;
13571;SDS011;6857;53.484;10.216;2023-03-24T04:41:49;6.07;;;3.93;;
13571;SDS011;6857;53.484;10.216;2023-03-24T04:44:16;5.57;;;3.97;;
13571;SDS011;6857;53.484;10.216;2023-03-24T04:46:46;5.83;;;3.57;;
13571;SDS011;6857;53.484;10.216;2023-03-24T04:49:17;6.47;;;3.73;;
13571;SDS011;6857;53.484;10.216;2023-03-24T04:51:43;7.33;;;3.67;;
13571;SDS011;6857;53.484;10.216;2023-03-24T04:54:09;6.20;;;4.00;;
13571;SDS011;6857;53.484;10.216;2023-03-24T04:56:40;6.77;;;4.83;;
13571;SDS011;6857;53.484;10.216;2023-03-24T04:59:12;6.23;;;3.97;;
13571;SDS011;6857;53.484;10.216;2023-03-24T05:01:39;3.40;;;3.10;;
13571;SDS011;6857;53.484;10.216;2023-03-24T05:04:05;7.97;;;4.20;;
13571;SDS011;6857;53.484;10.216;2023-03-24T05:06:32;6.20;;;3.87;;
13571;SDS011;6857;53.484;10.216;2023-03-24T05:08:58;6.03;;;4.13;;
13571;SDS011;6857;53.484;10.216;2023-03-24T05:11:26;5.63;;;4.60;;
13571;SDS011;6857;53.484;10.216;2023-03-24T05:13:53;6.33;;;4.37;;
13571;SDS011;6857;53.484;10.216;2023-03-24T05:16:19;7.03;;;4.60;;
13571;SDS011;6857;53.484;10.216;2023-03-24T05:18:45;6.00;;;3.90;;
13571;SDS011;6857;53.484;10.216;2023-03-24T05:21:10;4.43;;;3.80;;
13571;SDS011;6857;53.484;10.216;2023-03-24T05:23:36;7.63;;;4.70;;
13571;SDS011;6857;53.484;10.216;2023-03-24T05:26:02;5.40;;;4.47;;
13571;SDS011;6857;53.484;10.216;2023-03-24T05:28:29;5.70;;;4.17;;
13571;SDS011;6857;53.484;10.216;2023-03-24T05:30:54;7.87;;;4.40;;
13571;SDS011;6857;53.484;10.216;2023-03-24T05:33:20;5.40;;;4.30;;
13571;SDS011;6857;53.484;10.216;2023-03-24T05:35:46;5.43;;;3.87;;
13571;SDS011;6857;53.484;10.216;2023-03-24T05:38:11;4.53;;;3.70;;
13571;SDS011;6857;53.484;10.216;2023-03-24T05:40:37;3.90;;;3.30;;
13571;SDS011;6857;53.484;10.216;2023-03-24T05:43:02;4.63;;;3.70;;
13571;SDS011;6857;53.484;10.216;2023-03-24T05:45:28;4.63;;;3.70;;
13571;SDS011;6857;53.484;10.216;2023-03-24T05:47:54;5.90;;;3.63;;
13571;SDS011;6857;53.484;10.216;2023-03-24T05:50:20;4.47;;;3.47;;
13571;SDS011;6857;53.484;10.216;2023-03-24T05:52:45;4.87;;;3.43;;
13571;SDS011;6857;53.484;10.216;2023-03-24T05:55:11;3.93;;;3.10;;
13571;SDS011;6857;53.484;10.216;2023-03-24T05:57:37;3.87;;;2.90;;
13571;SDS011;6857;53.484;10.216;2023-03-24T06:00:04;5.50;;;3.20;;
13571;SDS011;6857;53.484;10.216;2023-03-24T06:02:33;3.90;;;3.10;;
13571;SDS011;6857;53.484;10.216;2023-03-24T06:04:58;4.63;;;3.57;;
13571;SDS011;6857;53.484;10.216;2023-03-24T06:07:25;3.50;;;3.13;;
13571;SDS011;6857;53.484;10.216;2023-03-24T06:09:54;6.70;;;3.50;;
13571;SDS011;6857;53.484;10.216;2023-03-24T06:12:21;5.27;;;3.60;;
13571;SDS011;6857;53.484;10.216;2023-03-24T06:14:47;4.07;;;3.40;;
13571;SDS011;6857;53.484;10.216;2023-03-24T06:17:13;4.57;;;3.37;;
13571;SDS011;6857;53.484;10.216;2023-03-24T06:19:40;4.33;;;3.67;;
13571;SDS011;6857;53.484;10.216;2023-03-24T06:22:12;6.33;;;3.77;;
13571;SDS011;6857;53.484;10.216;2023-03-24T06:24:38;5.43;;;4.30;;
13571;SDS011;6857;53.484;10.216;2023-03-24T06:27:03;5.47;;;3.60;;
13571;SDS011;6857;53.484;10.216;2023-03-24T06:29:32;4.93;;;3.90;;
13571;SDS011;6857;53.484;10.216;2023-03-24T06:31:59;4.57;;;3.70;;
13571;SDS011;6857;53.484;10.216;2023-03-24T06:34:24;5.77;;;4.90;;
13571;SDS011;6857;53.484;10.216;2023-03-24T06:36:50;7.30;;;5.37;;
13571;SDS011;6857;53.484;10.216;2023-03-24T06:39:16;6.33;;;4.17;;
13571;SDS011;6857;53.484;10.216;2023-03-24T06:41:42;6.07;;;4.43;;
13571;SDS011;6857;53.484;10.216;2023-03-24T06:44:08;4.57;;;3.80;;
13571;SDS011;6857;53.484;10.216;2023-03-24T06:46:33;4.90;;;3.83;;
13571;SDS011;6857;53.484;10.216;2023-03-24T06:48:59;5.30;;;4.00;;
13571;SDS011;6857;53.484;10.216;2023-03-24T06:51:24;3.30;;;3.00;;
13571;SDS011;6857;53.484;10.216;2023-03-24T06:53:50;3.80;;;3.30;;
13571;SDS011;6857;53.484;10.216;2023-03-24T06:56:16;5.63;;;3.80;;
13571;SDS011;6857;53.484;10.216;2023-03-24T06:58:44;5.10;;;3.50;;
13571;SDS011;6857;53.484;10.216;2023-03-24T07:01:10;4.77;;;3.20;;
13571;SDS011;6857;53.484;10.216;2023-03-24T07:03:36;4.33;;;3.40;;
13571;SDS011;6857;53.484;10.216;2023-03-24T07:06:02;3.00;;;2.70;;
13571;SDS011;6857;53.484;10.216;2023-03-24T07:08:29;3.10;;;2.87;;
13571;SDS011;6857;53.484;10.216;2023-03-24T07:10:55;3.47;;;3.00;;
13571;SDS011;6857;53.484;10.216;2023-03-24T07:13:21;3.60;;;3.17;;
13571;SDS011;6857;53.484;10.216;2023-03-24T07:15:46;3.07;;;2.77;;
13571;SDS011;6857;53.484;10.216;2023-03-24T07:18:12;3.13;;;2.80;;
13571;SDS011;6857;53.484;10.216;2023-03-24T07:20:38;4.07;;;3.17;;
13571;SDS011;6857;53.484;10.216;2023-03-24T07:23:04;3.37;;;2.87;;
13571;SDS011;6857;53.484;10.216;2023-03-24T07:25:30;3.27;;;2.70;;
13571;SDS011;6857;53.484;10.216;2023-03-24T07:27:55;3.10;;;2.80;;
13571;SDS011;6857;53.484;10.216;2023-03-24T07:30:21;4.57;;;3.20;;
13571;SDS011;6857;53.484;10.216;2023-03-24T07:32:48;4.30;;;3.47;;
13571;SDS011;6857;53.484;10.216;2023-03-24T07:35:14;3.33;;;2.90;;
13571;SDS011;6857;53.484;10.216;2023-03-24T07:37:40;3.73;;;3.00;;
13571;SDS011;6857;53.484;10.216;2023-03-24T07:40:07;9.67;;;2.53;;
13571;SDS011;6857;53.484;10.216;2023-03-24T07:42:36;2.27;;;2.07;;
13571;SDS011;6857;53.484;10.216;2023-03-24T07:45:03;5.50;;;2.10;;
13571;SDS011;6857;53.484;10.216;2023-03-24T07:47:31;3.50;;;1.70;;
13571;SDS011;6857;53.484;10.216;2023-03-24T07:49:56;1.87;;;1.50;;
13571;SDS011;6857;53.484;10.216;2023-03-24T07:52:22;3.07;;;1.80;;
13571;SDS011;6857;53.484;10.216;2023-03-24T07:54:47;3.20;;;1.90;;
13571;SDS011;6857;53.484;10.216;2023-03-24T07:57:13;2.80;;;1.50;;
13571;SDS011;6857;53.484;10.216;2023-03-24T07:59:38;2.83;;;1.30;;
13571;SDS011;6857;53.484;10.216;2023-03-24T08:02:04;3.23;;;1.30;;
13571;SDS011;6857;53.484;10.216;2023-03-24T08:04:33;2.40;;;1.23;;
13571;SDS011;6857;53.484;10.216;2023-03-24T08:06:58;4.73;;;1.40;;
13571;SDS011;6857;53.484;10.216;2023-03-24T08:09:24;5.10;;;1.40;;
13571;SDS011;6857;53.484;10.216;2023-03-24T08:11:50;6.50;;;1.60;;
13571;SDS011;6857;53.484;10.216;2023-03-24T08:14:15;3.27;;;1.50;;
13571;SDS011;6857;53.484;10.216;2023-03-24T08:16:41;5.17;;;1.00;;
13571;SDS011;6857;53.484;10.216;2023-03-24T08:19:09;4.90;;;1.47;;
13571;SDS011;6857;53.484;10.216;2023-03-24T08:21:35;5.17;;;1.60;;
13571;SDS011;6857;53.484;10.216;2023-03-24T08:24:01;6.67;;;1.57;;
13571;SDS011;6857;53.484;10.216;2023-03-24T08:26:26;5.83;;;1.60;;
13571;SDS011;6857;53.484;10.216;2023-03-24T08:28:52;6.27;;;1.70;;
13571;SDS011;6857;53.484;10.216;2023-03-24T08:31:18;5.60;;;1.80;;
13571;SDS011;6857;53.484;10.216;2023-03-24T08:33:43;3.40;;;1.53;;
13571;SDS011;6857;53.484;10.216;2023-03-24T08:36:09;5.13;;;1.47;;
13571;SDS011;6857;53.484;10.216;2023-03-24T08:38:34;5.43;;;1.80;;
13571;SDS011;6857;53.484;10.216;2023-03-24T08:41:03;6.90;;;1.50;;
13571;SDS011;6857;53.484;10.216;2023-03-24T08:43:31;4.00;;;1.17;;
13571;SDS011;6857;53.484;10.216;2023-03-24T08:45:58;2.70;;;1.10;;
13571;SDS011;6857;53.484;10.216;2023-03-24T08:48:25;4.13;;;1.43;;
13571;SDS011;6857;53.484;10.216;2023-03-24T08:50:52;2.30;;;0.90;;
13571;SDS011;6857;53.484;10.216;2023-03-24T08:53:18;3.60;;;1.27;;
13571;SDS011;6857;53.484;10.216;2023-03-24T08:55:44;3.07;;;1.23;;
13571;SDS011;6857;53.484;10.216;2023-03-24T08:58:14;5.30;;;1.70;;
13571;SDS011;6857;53.484;10.216;2023-03-24T09:00:42;4.33;;;1.33;;
13571;SDS011;6857;53.484;10.216;2023-03-24T09:03:13;4.80;;;1.50;;
13571;SDS011;6857;53.484;10.216;2023-03-24T09:05:42;4.00;;;1.13;;
13571;SDS011;6857;53.484;10.216;2023-03-24T09:08:08;4.97;;;1.03;;
13571;SDS011;6857;53.484;10.216;2023-03-24T09:10:35;4.70;;;1.57;;
13571;SDS011;6857;53.484;10.216;2023-03-24T09:13:00;3.60;;;1.50;;
13571;SDS011;6857;53.484;10.216;2023-03-24T09:15:28;2.73;;;1.13;;
13571;SDS011;6857;53.484;10.216;2023-03-24T09:17:54;4.53;;;1.20;;
13571;SDS011;6857;53.484;10.216;2023-03-24T09:20:19;5.43;;;1.50;;
13571;SDS011;6857;53.484;10.216;2023-03-24T09:22:45;3.53;;;1.23;;
13571;SDS011;6857;53.484;10.216;2023-03-24T09:25:13;5.20;;;1.43;;
13571;SDS011;6857;53.484;10.216;2023-03-24T09:27:43;7.67;;;1.60;;
13571;SDS011;6857;53.484;10.216;2023-03-24T09:30:10;4.40;;;1.50;;
13571;SDS011;6857;53.484;10.216;2023-03-24T09:32:38;4.57;;;1.33;;
13571;SDS011;6857;53.484;10.216;2023-03-24T09:35:04;5.77;;;1.90;;
13571;SDS011;6857;53.484;10.216;2023-03-24T09:37:32;5.73;;;1.50;;
13571;SDS011;6857;53.484;10.216;2023-03-24T09:39:59;8.33;;;2.20;;
13571;SDS011;6857;53.484;10.216;2023-03-24T09:42:27;3.57;;;1.40;;
13571;SDS011;6857;53.484;10.216;2023-03-24T09:44:57;5.70;;;1.63;;
13571;SDS011;6857;53.484;10.216;2023-03-24T09:47:25;5.60;;;1.70;;
13571;SDS011;6857;53.484;10.216;2023-03-24T09:52:48;7.27;;;2.67;;
13571;SDS011;6857;53.484;10.216;2023-03-24T09:55:27;5.17;;;1.53;;
13571;SDS011;6857;53.484;10.216;2023-03-24T09:57:54;5.43;;;1.63;;
13571;SDS011;6857;53.484;10.216;2023-03-24T10:00:26;5.80;;;1.50;;
13571;SDS011;6857;53.484;10.216;2023-03-24T10:02:56;6.03;;;1.90;;
13571;SDS011;6857;53.484;10.216;2023-03-24T10:05:39;7.73;;;1.97;;
13571;SDS011;6857;53.484;10.216;2023-03-24T10:08:30;6.63;;;1.57;;
13571;SDS011;6857;53.484;10.216;2023-03-24T10:11:09;6.43;;;2.00;;
13571;SDS011;6857;53.484;10.216;2023-03-24T10:13:50;5.00;;;2.13;;
13571;SDS011;6857;53.484;10.216;2023-03-24T10:16:59;4.67;;;1.83;;
13571;SDS011;6857;53.484;10.216;2023-03-24T10:22:38;3.27;;;1.20;;
13571;SDS011;6857;53.484;10.216;2023-03-24T10:25:25;4.73;;;1.37;;
13571;SDS011;6857;53.484;10.216;2023-03-24T10:28:20;5.50;;;1.83;;
13571;SDS011;6857;53.484;10.216;2023-03-24T10:30:54;4.73;;;1.73;;
13571;SDS011;6857;53.484;10.216;2023-03-24T10:33:25;7.07;;;1.90;;
13571;SDS011;6857;53.484;10.216;2023-03-24T10:38:26;7.10;;;1.80;;
13571;SDS011;6857;53.484;10.216;2023-03-24T10:40:51;8.07;;;2.07;;
13571;SDS011;6857;53.484;10.216;2023-03-24T10:43:19;6.17;;;1.50;;
13571;SDS011;6857;53.484;10.216;2023-03-24T10:45:50;5.07;;;1.50;;
13571;SDS011;6857;53.484;10.216;2023-03-24T10:48:39;3.80;;;1.50;;
13571;SDS011;6857;53.484;10.216;2023-03-24T10:51:15;6.27;;;1.57;;
13571;SDS011;6857;53.484;10.216;2023-03-24T10:53:44;10.27;;;2.20;;
13571;SDS011;6857;53.484;10.216;2023-03-24T11:02:50;4.93;;;1.50;;
13571;SDS011;6857;53.484;10.216;2023-03-24T11:04:56;5.23;;;1.60;;
13571;SDS011;6857;53.484;10.216;2023-03-24T11:07:28;7.80;;;1.90;;
13571;SDS011;6857;53.484;10.216;2023-03-24T11:12:36;9.43;;;2.37;;
13571;SDS011;6857;53.484;10.216;2023-03-24T11:17:40;9.77;;;1.53;;
13571;SDS011;6857;53.484;10.216;2023-03-24T11:20:30;5.33;;;1.57;;
13571;SDS011;6857;53.484;10.216;2023-03-24T11:22:55;7.50;;;2.00;;
13571;SDS011;6857;53.484;10.216;2023-03-24T11:25:26;8.93;;;1.77;;
13571;SDS011;6857;53.484;10.216;2023-03-24T11:27:55;6.23;;;1.47;;
13571;SDS011;6857;53.484;10.216;2023-03-24T11:30:27;6.53;;;2.07;;
13571;SDS011;6857;53.484;10.216;2023-03-24T11:32:55;8.17;;;1.90;;
13571;SDS011;6857;53.484;10.216;2023-03-24T11:35:22;5.27;;;1.70;;
13571;SDS011;6857;53.484;10.216;2023-03-24T11:37:47;7.83;;;1.53;;
13571;SDS011;6857;53.484;10.216;2023-03-24T11:40:23;6.23;;;2.07;;
13571;SDS011;6857;53.484;10.216;2023-03-24T11:42:52;5.93;;;1.57;;
13571;SDS011;6857;53.484;10.216;2023-03-24T11:45:24;5.97;;;2.03;;
13571;SDS011;6857;53.484;10.216;2023-03-24T11:47:57;9.77;;;2.17;;
13571;SDS011;6857;53.484;10.216;2023-03-24T11:53:01;7.00;;;2.27;;
13571;SDS011;6857;53.484;10.216;2023-03-24T12:06:34;9.50;;;2.60;;
13571;SDS011;6857;53.484;10.216;2023-03-24T12:09:20;5.93;;;1.67;;
13571;SDS011;6857;53.484;10.216;2023-03-24T12:17:41;6.13;;;2.03;;
13571;SDS011;6857;53.484;10.216;2023-03-24T12:20:27;5.73;;;1.77;;
13571;SDS011;6857;53.484;10.216;2023-03-24T12:23:12;6.20;;;1.90;;
13571;SDS011;6857;53.484;10.216;2023-03-24T12:43:44;4.90;;;1.57;;
13571;SDS011;6857;53.484;10.216;2023-03-24T12:54:33;4.67;;;1.80;;
13571;SDS011;6857;53.484;10.216;2023-03-24T12:57:06;7.87;;;1.70;;
13571;SDS011;6857;53.484;10.216;2023-03-24T12:59:47;7.13;;;2.10;;
13571;SDS011;6857;53.484;10.216;2023-03-24T13:04:51;6.80;;;1.87;;
13571;SDS011;6857;53.484;10.216;2023-03-24T13:07:22;8.53;;;2.00;;
13571;SDS011;6857;53.484;10.216;2023-03-24T13:12:25;7.30;;;1.80;;
13571;SDS011;6857;53.484;10.216;2023-03-24T13:20:11;7.77;;;2.17;;
13571;SDS011;6857;53.484;10.216;2023-03-24T13:22:38;5.77;;;1.77;;
13571;SDS011;6857;53.484;10.216;2023-03-24T13:25:07;7.33;;;2.20;;
13571;SDS011;6857;53.484;10.216;2023-03-24T13:27:46;4.83;;;2.37;;
13571;SDS011;6857;53.484;10.216;2023-03-24T13:30:21;9.07;;;2.63;;
13571;SDS011;6857;53.484;10.216;2023-03-24T13:33:01;9.00;;;2.50;;
13571;SDS011;6857;53.484;10.216;2023-03-24T13:38:12;9.73;;;2.40;;
13571;SDS011;6857;53.484;10.216;2023-03-24T13:40:53;5.07;;;2.43;;
13571;SDS011;6857;53.484;10.216;2023-03-24T13:43:21;3.90;;;1.87;;
13571;SDS011;6857;53.484;10.216;2023-03-24T13:45:50;8.10;;;2.40;;
13571;SDS011;6857;53.484;10.216;2023-03-24T13:51:02;7.07;;;2.33;;
13571;SDS011;6857;53.484;10.216;2023-03-24T13:53:38;4.30;;;1.73;;
13571;SDS011;6857;53.484;10.216;2023-03-24T13:56:41;4.90;;;1.93;;
13571;SDS011;6857;53.484;10.216;2023-03-24T14:05:07;6.70;;;1.93;;
13571;SDS011;6857;53.484;10.216;2023-03-24T14:18:13;6.50;;;2.27;;
13571;SDS011;6857;53.484;10.216;2023-03-24T14:20:57;6.07;;;1.67;;
13571;SDS011;6857;53.484;10.216;2023-03-24T14:26:48;5.83;;;1.57;;
13571;SDS011;6857;53.484;10.216;2023-03-24T14:28:49;7.93;;;3.10;;
13571;SDS011;6857;53.484;10.216;2023-03-24T14:38:55;5.33;;;1.53;;
13571;SDS011;6857;53.484;10.216;2023-03-24T14:41:29;5.73;;;2.07;;
13571;SDS011;6857;53.484;10.216;2023-03-24T14:43:59;4.93;;;1.60;;
13571;SDS011;6857;53.484;10.216;2023-03-24T14:46:32;6.13;;;2.00;;
13571;SDS011;6857;53.484;10.216;2023-03-24T14:49:10;5.77;;;1.80;;
13571;SDS011;6857;53.484;10.216;2023-03-24T14:52:11;6.57;;;2.30;;
13571;SDS011;6857;53.484;10.216;2023-03-24T14:57:30;4.00;;;1.47;;
13571;SDS011;6857;53.484;10.216;2023-03-24T15:05:51;6.90;;;1.87;;
13571;SDS011;6857;53.484;10.216;2023-03-24T15:08:18;5.40;;;1.50;;
13571;SDS011;6857;53.484;10.216;2023-03-24T15:10:47;5.67;;;2.13;;
13571;SDS011;6857;53.484;10.216;2023-03-24T15:13:46;4.57;;;1.77;;
13571;SDS011;6857;53.484;10.216;2023-03-24T15:16:16;4.33;;;1.53;;
13571;SDS011;6857;53.484;10.216;2023-03-24T15:18:45;6.77;;;1.70;;
13571;SDS011;6857;53.484;10.216;2023-03-24T15:24:00;3.80;;;1.40;;
13571;SDS011;6857;53.484;10.216;2023-03-24T15:26:28;4.83;;;1.50;;
13571;SDS011;6857;53.484;10.216;2023-03-24T15:28:56;7.30;;;1.57;;
13571;SDS011;6857;53.484;10.216;2023-03-24T15:31:26;4.63;;;1.70;;
13571;SDS011;6857;53.484;10.216;2023-03-24T15:34:07;3.87;;;1.40;;
13571;SDS011;6857;53.484;10.216;2023-03-24T15:36:51;6.90;;;2.47;;
13571;SDS011;6857;53.484;10.216;2023-03-24T15:39:18;5.47;;;1.80;;
13571;SDS011;6857;53.484;10.216;2023-03-24T15:41:49;4.30;;;1.67;;
13571;SDS011;6857;53.484;10.216;2023-03-24T15:44:17;6.57;;;1.67;;
13571;SDS011;6857;53.484;10.216;2023-03-24T15:46:44;6.20;;;1.40;;
13571;SDS011;6857;53.484;10.216;2023-03-24T15:49:19;5.60;;;1.57;;
13571;SDS011;6857;53.484;10.216;2023-03-24T15:51:57;6.60;;;2.23;;
13571;SDS011;6857;53.484;10.216;2023-03-24T15:54:29;7.33;;;2.20;;
13571;SDS011;6857;53.484;10.216;2023-03-24T15:59:41;5.27;;;1.70;;
13571;SDS011;6857;53.484;10.216;2023-03-24T16:02:13;4.37;;;1.60;;
13571;SDS011;6857;53.484;10.216;2023-03-24T16:04:49;6.30;;;1.80;;
13571;SDS011;6857;53.484;10.216;2023-03-24T16:07:25;5.37;;;1.73;;
13571;SDS011;6857;53.484;10.216;2023-03-24T16:09:56;5.57;;;1.83;;
13571;SDS011;6857;53.484;10.216;2023-03-24T16:12:30;5.97;;;1.90;;
13571;SDS011;6857;53.484;10.216;2023-03-24T16:14:59;7.67;;;1.93;;
13571;SDS011;6857;53.484;10.216;2023-03-24T16:17:25;7.37;;;1.63;;
13571;SDS011;6857;53.484;10.216;2023-03-24T16:19:51;6.00;;;1.80;;
13571;SDS011;6857;53.484;10.216;2023-03-24T16:22:16;3.97;;;1.40;;
13571;SDS011;6857;53.484;10.216;2023-03-24T16:24:42;4.27;;;1.60;;
13571;SDS011;6857;53.484;10.216;2023-03-24T16:27:10;7.00;;;2.20;;
13571;SDS011;6857;53.484;10.216;2023-03-24T16:29:36;10.10;;;3.30;;
13571;SDS011;6857;53.484;10.216;2023-03-24T16:32:02;5.97;;;1.80;;
13571;SDS011;6857;53.484;10.216;2023-03-24T16:34:28;5.40;;;2.00;;
13571;SDS011;6857;53.484;10.216;2023-03-24T16:36:55;6.90;;;1.90;;
13571;SDS011;6857;53.484;10.216;2023-03-24T16:39:22;6.93;;;1.67;;
13571;SDS011;6857;53.484;10.216;2023-03-24T16:41:51;7.97;;;1.87;;
13571;SDS011;6857;53.484;10.216;2023-03-24T16:44:18;8.00;;;2.17;;
13571;SDS011;6857;53.484;10.216;2023-03-24T16:46:45;6.07;;;1.60;;
13571;SDS011;6857;53.484;10.216;2023-03-24T16:49:12;7.17;;;2.13;;
13571;SDS011;6857;53.484;10.216;2023-03-24T16:51:39;7.60;;;1.70;;
13571;SDS011;6857;53.484;10.216;2023-03-24T16:54:05;7.60;;;1.93;;
13571;SDS011;6857;53.484;10.216;2023-03-24T16:56:32;5.07;;;1.50;;
13571;SDS011;6857;53.484;10.216;2023-03-24T16:58:57;4.30;;;1.77;;
13571;SDS011;6857;53.484;10.216;2023-03-24T17:01:33;6.97;;;2.13;;
13571;SDS011;6857;53.484;10.216;2023-03-24T17:04:00;4.90;;;1.80;;
13571;SDS011;6857;53.484;10.216;2023-03-24T17:06:28;5.90;;;1.63;;
13571;SDS011;6857;53.484;10.216;2023-03-24T17:08:56;5.30;;;1.70;;
13571;SDS011;6857;53.484;10.216;2023-03-24T17:11:31;5.47;;;1.77;;
13571;SDS011;6857;53.484;10.216;2023-03-24T17:14:03;5.63;;;1.30;;
13571;SDS011;6857;53.484;10.216;2023-03-24T17:16:32;6.60;;;2.47;;
13571;SDS011;6857;53.484;10.216;2023-03-24T17:19:03;5.27;;;1.60;;
13571;SDS011;6857;53.484;10.216;2023-03-24T17:21:30;10.17;;;2.50;;
13571;SDS011;6857;53.484;10.216;2023-03-24T17:24:02;4.80;;;1.80;;
13571;SDS011;6857;53.484;10.216;2023-03-24T17:26:28;8.23;;;1.80;;
13571;SDS011;6857;53.484;10.216;2023-03-24T17:28:54;6.10;;;1.70;;
13571;SDS011;6857;53.484;10.216;2023-03-24T17:31:20;3.57;;;1.40;;
13571;SDS011;6857;53.484;10.216;2023-03-24T17:33:46;5.17;;;1.60;;
13571;SDS011;6857;53.484;10.216;2023-03-24T17:36:12;7.07;;;2.10;;
13571;SDS011;6857;53.484;10.216;2023-03-24T17:38:40;5.67;;;1.50;;
13571;SDS011;6857;53.484;10.216;2023-03-24T17:41:07;3.60;;;1.80;;
13571;SDS011;6857;53.484;10.216;2023-03-24T17:43:33;6.83;;;1.80;;
13571;SDS011;6857;53.484;10.216;2023-03-24T17:45:59;5.60;;;2.07;;
13571;SDS011;6857;53.484;10.216;2023-03-24T17:48:26;4.37;;;1.73;;
13571;SDS011;6857;53.484;10.216;2023-03-24T17:50:52;5.27;;;1.60;;
13571;SDS011;6857;53.484;10.216;2023-03-24T17:53:18;8.80;;;1.80;;
13571;SDS011;6857;53.484;10.216;2023-03-24T17:55:56;3.77;;;1.43;;
13571;SDS011;6857;53.484;10.216;2023-03-24T17:58:23;4.17;;;1.60;;
13571;SDS011;6857;53.484;10.216;2023-03-24T18:00:50;3.70;;;1.60;;